sensor_id;sensor_type;location;lat;lon;timestamp;P1;durP1;ratioP1;P2;durP2;ratioP2
3843;SDS011;1937;51.444;6.484;2022-12-16T00:02:00;54.07;;;27.27;;
3843;SDS011;1937;51.444;6.484;2022-12-16T00:04:29;57.03;;;28.47;;
3843;SDS011;1937;51.444;6.484;2022-12-16T00:06:57;64.07;;;28.17;;
3843;SDS011;1937;51.444;6.484;2022-12-16T00:09:25;65.00;;;27.27;;
3843;SDS011;1937;51.444;6.484;2022-12-16T00:11:54;51.20;;;23.43;;
3843;SDS011;1937;51.444;6.484;2022-12-16T00:14:22;53.43;;;25.17;;
3843;SDS011;1937;51.444;6.484;2022-12-16T00:16:55;59.37;;;23.07;;
3843;SDS011;1937;51.444;6.484;2022-12-16T00:19:25;50.50;;;23.80;;
3843;SDS011;1937;51.444;6.484;2022-12-16T00:21:55;52.40;;;23.73;;
3843;SDS011;1937;51.444;6.484;2022-12-16T00:24:23;61.63;;;26.17;;
3843;SDS011;1937;51.444;6.484;2022-12-16T00:26:52;63.53;;;24.50;;
3843;SDS011;1937;51.444;6.484;2022-12-16T00:29:20;51.77;;;24.67;;
3843;SDS011;1937;51.444;6.484;2022-12-16T00:31:49;64.53;;;27.67;;
3843;SDS011;1937;51.444;6.484;2022-12-16T00:34:18;52.70;;;23.87;;
3843;SDS011;1937;51.444;6.484;2022-12-16T00:36:48;53.13;;;24.70;;
3843;SDS011;1937;51.444;6.484;2022-12-16T00:39:17;60.47;;;24.57;;
3843;SDS011;1937;51.444;6.484;2022-12-16T00:41:45;64.07;;;25.30;;
3843;SDS011;1937;51.444;6.484;2022-12-16T00:44:14;59.47;;;23.67;;
3843;SDS011;1937;51.444;6.484;2022-12-16T00:46:43;55.23;;;25.00;;
3843;SDS011;1937;51.444;6.484;2022-12-16T00:49:11;52.10;;;24.23;;
3843;SDS011;1937;51.444;6.484;2022-12-16T00:51:39;52.73;;;23.90;;
3843;SDS011;1937;51.444;6.484;2022-12-16T00:54:09;58.77;;;24.70;;
3843;SDS011;1937;51.444;6.484;2022-12-16T00:56:37;51.40;;;24.00;;
3843;SDS011;1937;51.444;6.484;2022-12-16T00:59:06;48.93;;;21.83;;
3843;SDS011;1937;51.444;6.484;2022-12-16T01:01:34;55.23;;;25.33;;
3843;SDS011;1937;51.444;6.484;2022-12-16T01:04:02;56.90;;;26.07;;
3843;SDS011;1937;51.444;6.484;2022-12-16T01:06:31;61.30;;;25.57;;
3843;SDS011;1937;51.444;6.484;2022-12-16T01:09:00;62.53;;;26.20;;
3843;SDS011;1937;51.444;6.484;2022-12-16T01:11:30;58.53;;;24.63;;
3843;SDS011;1937;51.444;6.484;2022-12-16T01:13:58;51.43;;;21.90;;
3843;SDS011;1937;51.444;6.484;2022-12-16T01:16:28;54.20;;;22.60;;
3843;SDS011;1937;51.444;6.484;2022-12-16T01:18:56;57.10;;;23.30;;
3843;SDS011;1937;51.444;6.484;2022-12-16T01:21:24;56.27;;;24.13;;
3843;SDS011;1937;51.444;6.484;2022-12-16T01:23:53;52.77;;;20.40;;
3843;SDS011;1937;51.444;6.484;2022-12-16T01:26:21;50.17;;;21.60;;
3843;SDS011;1937;51.444;6.484;2022-12-16T01:28:51;49.47;;;19.87;;
3843;SDS011;1937;51.444;6.484;2022-12-16T01:31:19;48.33;;;21.30;;
3843;SDS011;1937;51.444;6.484;2022-12-16T01:33:48;63.90;;;24.77;;
3843;SDS011;1937;51.444;6.484;2022-12-16T01:36:17;49.30;;;22.10;;
3843;SDS011;1937;51.444;6.484;2022-12-16T01:38:45;55.07;;;22.57;;
3843;SDS011;1937;51.444;6.484;2022-12-16T01:41:14;48.90;;;22.60;;
3843;SDS011;1937;51.444;6.484;2022-12-16T01:43:44;54.50;;;22.10;;
3843;SDS011;1937;51.444;6.484;2022-12-16T01:46:17;42.10;;;20.87;;
3843;SDS011;1937;51.444;6.484;2022-12-16T01:48:50;52.43;;;23.77;;
3843;SDS011;1937;51.444;6.484;2022-12-16T01:51:25;40.40;;;19.97;;
3843;SDS011;1937;51.444;6.484;2022-12-16T01:53:58;55.20;;;23.00;;
3843;SDS011;1937;51.444;6.484;2022-12-16T01:56:34;46.40;;;22.87;;
3843;SDS011;1937;51.444;6.484;2022-12-16T01:59:06;56.37;;;22.93;;
3843;SDS011;1937;51.444;6.484;2022-12-16T02:01:37;66.83;;;22.87;;
3843;SDS011;1937;51.444;6.484;2022-12-16T02:04:06;41.93;;;21.67;;
3843;SDS011;1937;51.444;6.484;2022-12-16T02:06:34;51.23;;;21.37;;
3843;SDS011;1937;51.444;6.484;2022-12-16T02:09:04;53.47;;;23.83;;
3843;SDS011;1937;51.444;6.484;2022-12-16T02:11:39;57.57;;;23.57;;
3843;SDS011;1937;51.444;6.484;2022-12-16T02:14:39;49.93;;;20.70;;
3843;SDS011;1937;51.444;6.484;2022-12-16T02:17:39;54.07;;;22.77;;
3843;SDS011;1937;51.444;6.484;2022-12-16T02:20:35;53.20;;;23.40;;
3843;SDS011;1937;51.444;6.484;2022-12-16T02:23:23;52.90;;;22.30;;
3843;SDS011;1937;51.444;6.484;2022-12-16T02:29:06;52.00;;;21.17;;
3843;SDS011;1937;51.444;6.484;2022-12-16T02:31:55;52.10;;;21.30;;
3843;SDS011;1937;51.444;6.484;2022-12-16T02:34:36;48.13;;;20.60;;
3843;SDS011;1937;51.444;6.484;2022-12-16T02:37:17;42.30;;;19.60;;
3843;SDS011;1937;51.444;6.484;2022-12-16T02:39:59;51.20;;;23.90;;
3843;SDS011;1937;51.444;6.484;2022-12-16T02:42:33;42.27;;;21.00;;
3843;SDS011;1937;51.444;6.484;2022-12-16T02:45:07;61.10;;;23.80;;
3843;SDS011;1937;51.444;6.484;2022-12-16T02:47:42;50.40;;;22.30;;
3843;SDS011;1937;51.444;6.484;2022-12-16T02:50:14;43.73;;;21.30;;
3843;SDS011;1937;51.444;6.484;2022-12-16T02:52:47;54.63;;;19.30;;
3843;SDS011;1937;51.444;6.484;2022-12-16T02:55:18;43.20;;;19.60;;
3843;SDS011;1937;51.444;6.484;2022-12-16T02:57:58;59.60;;;25.13;;
3843;SDS011;1937;51.444;6.484;2022-12-16T03:00:38;56.37;;;23.20;;
3843;SDS011;1937;51.444;6.484;2022-12-16T03:03:17;43.53;;;21.40;;
3843;SDS011;1937;51.444;6.484;2022-12-16T03:05:50;42.77;;;20.70;;
3843;SDS011;1937;51.444;6.484;2022-12-16T03:08:21;49.40;;;21.47;;
3843;SDS011;1937;51.444;6.484;2022-12-16T03:10:55;47.93;;;22.17;;
3843;SDS011;1937;51.444;6.484;2022-12-16T03:13:26;47.30;;;22.07;;
3843;SDS011;1937;51.444;6.484;2022-12-16T03:16:00;49.03;;;22.40;;
3843;SDS011;1937;51.444;6.484;2022-12-16T03:18:34;48.87;;;20.13;;
3843;SDS011;1937;51.444;6.484;2022-12-16T03:21:08;42.10;;;21.97;;
3843;SDS011;1937;51.444;6.484;2022-12-16T03:23:40;42.80;;;19.20;;
3843;SDS011;1937;51.444;6.484;2022-12-16T03:26:14;49.70;;;21.30;;
3843;SDS011;1937;51.444;6.484;2022-12-16T03:28:47;60.97;;;23.23;;
3843;SDS011;1937;51.444;6.484;2022-12-16T03:31:24;49.97;;;22.70;;
3843;SDS011;1937;51.444;6.484;2022-12-16T03:34:04;50.63;;;23.60;;
3843;SDS011;1937;51.444;6.484;2022-12-16T03:36:38;49.30;;;23.00;;
3843;SDS011;1937;51.444;6.484;2022-12-16T03:39:09;50.80;;;22.93;;
3843;SDS011;1937;51.444;6.484;2022-12-16T03:41:40;60.33;;;27.83;;
3843;SDS011;1937;51.444;6.484;2022-12-16T03:44:12;63.27;;;25.10;;
3843;SDS011;1937;51.444;6.484;2022-12-16T03:46:42;53.90;;;21.37;;
3843;SDS011;1937;51.444;6.484;2022-12-16T03:49:12;50.53;;;23.30;;
3843;SDS011;1937;51.444;6.484;2022-12-16T03:51:40;46.30;;;22.27;;
3843;SDS011;1937;51.444;6.484;2022-12-16T03:54:09;50.30;;;24.40;;
3843;SDS011;1937;51.444;6.484;2022-12-16T03:56:37;43.67;;;21.60;;
3843;SDS011;1937;51.444;6.484;2022-12-16T03:59:05;49.47;;;23.80;;
3843;SDS011;1937;51.444;6.484;2022-12-16T04:01:34;53.70;;;24.77;;
3843;SDS011;1937;51.444;6.484;2022-12-16T04:04:02;53.60;;;24.27;;
3843;SDS011;1937;51.444;6.484;2022-12-16T04:06:33;59.63;;;24.93;;
3843;SDS011;1937;51.444;6.484;2022-12-16T04:09:01;48.47;;;22.37;;
3843;SDS011;1937;51.444;6.484;2022-12-16T04:11:29;60.27;;;21.97;;
3843;SDS011;1937;51.444;6.484;2022-12-16T04:14:15;55.47;;;24.60;;
3843;SDS011;1937;51.444;6.484;2022-12-16T04:17:01;53.83;;;22.87;;
3843;SDS011;1937;51.444;6.484;2022-12-16T04:20:03;54.07;;;23.30;;
3843;SDS011;1937;51.444;6.484;2022-12-16T04:22:57;56.87;;;23.57;;
3843;SDS011;1937;51.444;6.484;2022-12-16T04:25:43;44.37;;;22.10;;
3843;SDS011;1937;51.444;6.484;2022-12-16T04:28:12;53.90;;;21.77;;
3843;SDS011;1937;51.444;6.484;2022-12-16T04:30:41;44.97;;;20.50;;
3843;SDS011;1937;51.444;6.484;2022-12-16T04:33:10;52.07;;;24.07;;
3843;SDS011;1937;51.444;6.484;2022-12-16T04:35:58;46.87;;;21.77;;
3843;SDS011;1937;51.444;6.484;2022-12-16T04:38:45;58.37;;;25.80;;
3843;SDS011;1937;51.444;6.484;2022-12-16T04:41:31;54.10;;;21.70;;
3843;SDS011;1937;51.444;6.484;2022-12-16T04:44:17;49.27;;;21.47;;
3843;SDS011;1937;51.444;6.484;2022-12-16T04:47:03;45.27;;;20.80;;
3843;SDS011;1937;51.444;6.484;2022-12-16T04:49:49;51.80;;;24.50;;
3843;SDS011;1937;51.444;6.484;2022-12-16T04:52:35;49.97;;;20.53;;
3843;SDS011;1937;51.444;6.484;2022-12-16T04:55:23;46.70;;;20.70;;
3843;SDS011;1937;51.444;6.484;2022-12-16T04:58:10;45.87;;;22.27;;
3843;SDS011;1937;51.444;6.484;2022-12-16T05:00:56;42.77;;;21.03;;
3843;SDS011;1937;51.444;6.484;2022-12-16T05:03:41;43.30;;;19.70;;
3843;SDS011;1937;51.444;6.484;2022-12-16T05:06:28;51.37;;;23.03;;
3843;SDS011;1937;51.444;6.484;2022-12-16T05:09:20;48.07;;;22.00;;
3843;SDS011;1937;51.444;6.484;2022-12-16T05:12:07;41.50;;;20.27;;
3843;SDS011;1937;51.444;6.484;2022-12-16T05:14:53;59.93;;;19.77;;
3843;SDS011;1937;51.444;6.484;2022-12-16T05:17:39;48.13;;;21.23;;
3843;SDS011;1937;51.444;6.484;2022-12-16T05:20:27;40.60;;;19.93;;
3843;SDS011;1937;51.444;6.484;2022-12-16T05:23:13;41.80;;;19.00;;
3843;SDS011;1937;51.444;6.484;2022-12-16T05:25:59;40.40;;;19.20;;
3843;SDS011;1937;51.444;6.484;2022-12-16T05:28:47;53.40;;;23.07;;
3843;SDS011;1937;51.444;6.484;2022-12-16T05:31:33;42.97;;;19.97;;
3843;SDS011;1937;51.444;6.484;2022-12-16T05:34:19;50.57;;;19.70;;
3843;SDS011;1937;51.444;6.484;2022-12-16T05:37:01;37.60;;;19.37;;
3843;SDS011;1937;51.444;6.484;2022-12-16T05:39:48;41.57;;;21.63;;
3843;SDS011;1937;51.444;6.484;2022-12-16T05:42:34;44.23;;;19.20;;
3843;SDS011;1937;51.444;6.484;2022-12-16T05:45:21;43.43;;;19.37;;
3843;SDS011;1937;51.444;6.484;2022-12-16T05:48:08;46.80;;;20.40;;
3843;SDS011;1937;51.444;6.484;2022-12-16T05:50:54;47.73;;;20.27;;
3843;SDS011;1937;51.444;6.484;2022-12-16T05:53:40;38.03;;;20.57;;
3843;SDS011;1937;51.444;6.484;2022-12-16T05:56:26;51.20;;;20.57;;
3843;SDS011;1937;51.444;6.484;2022-12-16T05:59:12;40.77;;;19.70;;
3843;SDS011;1937;51.444;6.484;2022-12-16T06:02:00;45.53;;;21.23;;
3843;SDS011;1937;51.444;6.484;2022-12-16T06:04:48;46.30;;;19.40;;
3843;SDS011;1937;51.444;6.484;2022-12-16T06:07:35;47.90;;;23.00;;
3843;SDS011;1937;51.444;6.484;2022-12-16T06:10:17;62.13;;;23.67;;
3843;SDS011;1937;51.444;6.484;2022-12-16T06:13:04;53.50;;;24.73;;
3843;SDS011;1937;51.444;6.484;2022-12-16T06:15:50;46.80;;;24.07;;
3843;SDS011;1937;51.444;6.484;2022-12-16T06:18:37;53.00;;;24.17;;
3843;SDS011;1937;51.444;6.484;2022-12-16T06:21:38;51.00;;;21.77;;
3843;SDS011;1937;51.444;6.484;2022-12-16T06:24:24;52.30;;;25.27;;
3843;SDS011;1937;51.444;6.484;2022-12-16T06:27:10;53.57;;;24.70;;
3843;SDS011;1937;51.444;6.484;2022-12-16T06:29:57;50.43;;;24.73;;
3843;SDS011;1937;51.444;6.484;2022-12-16T06:32:44;48.57;;;22.13;;
3843;SDS011;1937;51.444;6.484;2022-12-16T06:35:31;53.10;;;21.57;;
3843;SDS011;1937;51.444;6.484;2022-12-16T06:38:31;45.97;;;19.97;;
3843;SDS011;1937;51.444;6.484;2022-12-16T06:41:17;47.00;;;21.03;;
3843;SDS011;1937;51.444;6.484;2022-12-16T06:44:04;52.73;;;22.57;;
3843;SDS011;1937;51.444;6.484;2022-12-16T06:46:51;53.60;;;22.70;;
3843;SDS011;1937;51.444;6.484;2022-12-16T06:49:38;51.97;;;20.73;;
3843;SDS011;1937;51.444;6.484;2022-12-16T06:52:25;46.10;;;21.60;;
3843;SDS011;1937;51.444;6.484;2022-12-16T06:55:23;48.00;;;22.20;;
3843;SDS011;1937;51.444;6.484;2022-12-16T06:58:09;46.63;;;21.20;;
3843;SDS011;1937;51.444;6.484;2022-12-16T07:00:58;57.93;;;23.07;;
3843;SDS011;1937;51.444;6.484;2022-12-16T07:03:45;48.30;;;21.27;;
3843;SDS011;1937;51.444;6.484;2022-12-16T07:06:31;58.20;;;22.60;;
3843;SDS011;1937;51.444;6.484;2022-12-16T07:09:18;47.90;;;22.00;;
3843;SDS011;1937;51.444;6.484;2022-12-16T07:12:04;49.77;;;21.40;;
3843;SDS011;1937;51.444;6.484;2022-12-16T07:14:52;54.13;;;21.77;;
3843;SDS011;1937;51.444;6.484;2022-12-16T07:17:34;53.30;;;24.70;;
3843;SDS011;1937;51.444;6.484;2022-12-16T07:20:21;51.57;;;23.00;;
3843;SDS011;1937;51.444;6.484;2022-12-16T07:23:08;52.20;;;23.50;;
3843;SDS011;1937;51.444;6.484;2022-12-16T07:25:55;57.20;;;24.37;;
3843;SDS011;1937;51.444;6.484;2022-12-16T07:28:42;51.20;;;21.77;;
3843;SDS011;1937;51.444;6.484;2022-12-16T07:31:28;46.07;;;22.23;;
3843;SDS011;1937;51.444;6.484;2022-12-16T07:34:14;52.77;;;23.17;;
3843;SDS011;1937;51.444;6.484;2022-12-16T07:37:14;50.53;;;22.00;;
3843;SDS011;1937;51.444;6.484;2022-12-16T07:40:01;56.57;;;24.90;;
3843;SDS011;1937;51.444;6.484;2022-12-16T07:42:49;51.47;;;25.60;;
3843;SDS011;1937;51.444;6.484;2022-12-16T07:45:36;53.77;;;22.37;;
3843;SDS011;1937;51.444;6.484;2022-12-16T07:48:22;55.30;;;24.40;;
3843;SDS011;1937;51.444;6.484;2022-12-16T07:51:08;48.10;;;23.67;;
3843;SDS011;1937;51.444;6.484;2022-12-16T07:53:54;57.07;;;23.57;;
3843;SDS011;1937;51.444;6.484;2022-12-16T07:56:40;56.53;;;25.23;;
3843;SDS011;1937;51.444;6.484;2022-12-16T07:59:27;61.07;;;25.70;;
3843;SDS011;1937;51.444;6.484;2022-12-16T08:02:13;61.00;;;25.80;;
3843;SDS011;1937;51.444;6.484;2022-12-16T08:05:00;49.43;;;23.67;;
3843;SDS011;1937;51.444;6.484;2022-12-16T08:07:46;60.77;;;26.10;;
3843;SDS011;1937;51.444;6.484;2022-12-16T08:10:32;51.37;;;23.13;;
3843;SDS011;1937;51.444;6.484;2022-12-16T08:13:18;62.00;;;25.50;;
3843;SDS011;1937;51.444;6.484;2022-12-16T08:16:06;66.90;;;25.70;;
3843;SDS011;1937;51.444;6.484;2022-12-16T08:19:03;62.87;;;23.77;;
3843;SDS011;1937;51.444;6.484;2022-12-16T08:21:49;60.83;;;26.27;;
3843;SDS011;1937;51.444;6.484;2022-12-16T08:24:36;55.50;;;24.20;;
3843;SDS011;1937;51.444;6.484;2022-12-16T08:27:22;52.73;;;24.23;;
3843;SDS011;1937;51.444;6.484;2022-12-16T08:30:08;48.13;;;23.03;;
3843;SDS011;1937;51.444;6.484;2022-12-16T08:32:56;57.13;;;25.57;;
3843;SDS011;1937;51.444;6.484;2022-12-16T08:35:42;57.00;;;24.90;;
3843;SDS011;1937;51.444;6.484;2022-12-16T08:38:28;41.70;;;23.47;;
3843;SDS011;1937;51.444;6.484;2022-12-16T08:41:14;65.67;;;23.07;;
3843;SDS011;1937;51.444;6.484;2022-12-16T08:44:00;54.83;;;24.93;;
3843;SDS011;1937;51.444;6.484;2022-12-16T08:46:46;57.70;;;24.83;;
3843;SDS011;1937;51.444;6.484;2022-12-16T08:49:30;59.20;;;26.20;;
3843;SDS011;1937;51.444;6.484;2022-12-16T08:52:16;48.30;;;24.40;;
3843;SDS011;1937;51.444;6.484;2022-12-16T08:55:02;55.13;;;24.57;;
3843;SDS011;1937;51.444;6.484;2022-12-16T08:57:51;48.70;;;21.50;;
3843;SDS011;1937;51.444;6.484;2022-12-16T09:00:37;45.30;;;22.57;;
3843;SDS011;1937;51.444;6.484;2022-12-16T09:03:24;50.97;;;24.20;;
3843;SDS011;1937;51.444;6.484;2022-12-16T09:06:12;52.63;;;26.07;;
3843;SDS011;1937;51.444;6.484;2022-12-16T09:08:58;51.23;;;24.93;;
3843;SDS011;1937;51.444;6.484;2022-12-16T09:11:40;59.97;;;27.90;;
3843;SDS011;1937;51.444;6.484;2022-12-16T09:14:27;50.73;;;25.40;;
3843;SDS011;1937;51.444;6.484;2022-12-16T09:17:15;54.60;;;26.50;;
3843;SDS011;1937;51.444;6.484;2022-12-16T09:20:08;58.80;;;24.87;;
3843;SDS011;1937;51.444;6.484;2022-12-16T09:22:59;47.53;;;22.67;;
3843;SDS011;1937;51.444;6.484;2022-12-16T09:25:46;49.70;;;24.67;;
3843;SDS011;1937;51.444;6.484;2022-12-16T09:28:32;58.13;;;26.87;;
3843;SDS011;1937;51.444;6.484;2022-12-16T09:31:30;54.93;;;27.07;;
3843;SDS011;1937;51.444;6.484;2022-12-16T09:34:16;51.27;;;25.17;;
3843;SDS011;1937;51.444;6.484;2022-12-16T09:37:02;51.03;;;26.13;;
3843;SDS011;1937;51.444;6.484;2022-12-16T09:39:50;50.40;;;24.53;;
3843;SDS011;1937;51.444;6.484;2022-12-16T09:42:38;49.17;;;24.60;;
3843;SDS011;1937;51.444;6.484;2022-12-16T09:45:32;48.27;;;26.27;;
3843;SDS011;1937;51.444;6.484;2022-12-16T09:48:26;68.87;;;29.03;;
3843;SDS011;1937;51.444;6.484;2022-12-16T09:51:19;62.93;;;24.43;;
3843;SDS011;1937;51.444;6.484;2022-12-16T09:54:07;63.97;;;24.93;;
3843;SDS011;1937;51.444;6.484;2022-12-16T09:57:00;70.00;;;29.40;;
3843;SDS011;1937;51.444;6.484;2022-12-16T09:59:52;52.60;;;24.83;;
3843;SDS011;1937;51.444;6.484;2022-12-16T10:02:42;65.00;;;28.73;;
3843;SDS011;1937;51.444;6.484;2022-12-16T10:05:32;62.70;;;30.80;;
3843;SDS011;1937;51.444;6.484;2022-12-16T10:08:30;50.90;;;24.00;;
3843;SDS011;1937;51.444;6.484;2022-12-16T10:11:25;60.63;;;25.77;;
3843;SDS011;1937;51.444;6.484;2022-12-16T10:14:22;66.43;;;26.97;;
3843;SDS011;1937;51.444;6.484;2022-12-16T10:17:15;61.57;;;27.80;;
3843;SDS011;1937;51.444;6.484;2022-12-16T10:20:06;72.10;;;31.07;;
3843;SDS011;1937;51.444;6.484;2022-12-16T10:22:59;56.90;;;28.30;;
3843;SDS011;1937;51.444;6.484;2022-12-16T10:25:55;44.20;;;26.50;;
3843;SDS011;1937;51.444;6.484;2022-12-16T10:28:45;63.07;;;29.50;;
3843;SDS011;1937;51.444;6.484;2022-12-16T10:31:36;54.13;;;25.80;;
3843;SDS011;1937;51.444;6.484;2022-12-16T10:34:24;95.80;;;32.97;;
3843;SDS011;1937;51.444;6.484;2022-12-16T10:37:13;69.17;;;28.43;;
3843;SDS011;1937;51.444;6.484;2022-12-16T10:40:03;70.87;;;27.27;;
3843;SDS011;1937;51.444;6.484;2022-12-16T10:42:58;67.20;;;29.07;;
3843;SDS011;1937;51.444;6.484;2022-12-16T10:45:49;68.53;;;26.57;;
3843;SDS011;1937;51.444;6.484;2022-12-16T10:48:39;59.50;;;27.43;;
3843;SDS011;1937;51.444;6.484;2022-12-16T10:51:27;103.73;;;35.37;;
3843;SDS011;1937;51.444;6.484;2022-12-16T10:54:19;68.20;;;29.10;;
3843;SDS011;1937;51.444;6.484;2022-12-16T10:57:12;68.40;;;33.97;;
3843;SDS011;1937;51.444;6.484;2022-12-16T11:00:09;94.83;;;37.17;;
3843;SDS011;1937;51.444;6.484;2022-12-16T11:03:18;76.57;;;32.53;;
3843;SDS011;1937;51.444;6.484;2022-12-16T11:06:07;62.93;;;30.23;;
3843;SDS011;1937;51.444;6.484;2022-12-16T11:08:54;61.10;;;28.03;;
3843;SDS011;1937;51.444;6.484;2022-12-16T11:12:05;61.03;;;29.40;;
3843;SDS011;1937;51.444;6.484;2022-12-16T11:15:08;66.50;;;30.17;;
3843;SDS011;1937;51.444;6.484;2022-12-16T11:18:01;53.80;;;25.50;;
3843;SDS011;1937;51.444;6.484;2022-12-16T11:20:58;52.13;;;30.03;;
3843;SDS011;1937;51.444;6.484;2022-12-16T11:24:03;60.63;;;28.67;;
3843;SDS011;1937;51.444;6.484;2022-12-16T11:26:55;62.73;;;30.27;;
3843;SDS011;1937;51.444;6.484;2022-12-16T11:29:50;57.33;;;29.40;;
3843;SDS011;1937;51.444;6.484;2022-12-16T11:32:39;56.50;;;28.33;;
3843;SDS011;1937;51.444;6.484;2022-12-16T11:35:29;58.80;;;29.90;;
3843;SDS011;1937;51.444;6.484;2022-12-16T11:38:21;54.73;;;25.80;;
3843;SDS011;1937;51.444;6.484;2022-12-16T11:41:14;62.70;;;27.87;;
3843;SDS011;1937;51.444;6.484;2022-12-16T11:44:15;62.57;;;27.20;;
3843;SDS011;1937;51.444;6.484;2022-12-16T11:47:03;49.20;;;24.10;;
3843;SDS011;1937;51.444;6.484;2022-12-16T11:49:59;59.07;;;27.37;;
3843;SDS011;1937;51.444;6.484;2022-12-16T11:52:52;71.10;;;29.10;;
3843;SDS011;1937;51.444;6.484;2022-12-16T11:55:44;57.20;;;26.60;;
3843;SDS011;1937;51.444;6.484;2022-12-16T11:58:36;66.80;;;27.70;;
3843;SDS011;1937;51.444;6.484;2022-12-16T12:01:26;54.50;;;27.43;;
3843;SDS011;1937;51.444;6.484;2022-12-16T12:04:14;55.10;;;26.17;;
3843;SDS011;1937;51.444;6.484;2022-12-16T12:07:04;58.40;;;27.47;;
3843;SDS011;1937;51.444;6.484;2022-12-16T12:09:58;61.47;;;27.50;;
3843;SDS011;1937;51.444;6.484;2022-12-16T12:12:51;61.80;;;29.47;;
3843;SDS011;1937;51.444;6.484;2022-12-16T12:15:45;58.87;;;26.50;;
3843;SDS011;1937;51.444;6.484;2022-12-16T12:18:39;60.47;;;28.40;;
3843;SDS011;1937;51.444;6.484;2022-12-16T12:21:32;76.10;;;33.80;;
3843;SDS011;1937;51.444;6.484;2022-12-16T12:24:28;70.03;;;29.20;;
3843;SDS011;1937;51.444;6.484;2022-12-16T12:27:24;67.23;;;31.03;;
3843;SDS011;1937;51.444;6.484;2022-12-16T12:30:17;62.53;;;28.30;;
3843;SDS011;1937;51.444;6.484;2022-12-16T12:33:16;71.57;;;33.30;;
3843;SDS011;1937;51.444;6.484;2022-12-16T12:36:10;69.60;;;30.87;;
3843;SDS011;1937;51.444;6.484;2022-12-16T12:39:03;62.23;;;30.37;;
3843;SDS011;1937;51.444;6.484;2022-12-16T12:42:07;60.17;;;29.50;;
3843;SDS011;1937;51.444;6.484;2022-12-16T12:45:10;65.30;;;31.57;;
3843;SDS011;1937;51.444;6.484;2022-12-16T12:48:10;61.23;;;29.93;;
3843;SDS011;1937;51.444;6.484;2022-12-16T12:51:03;69.47;;;29.30;;
3843;SDS011;1937;51.444;6.484;2022-12-16T12:53:55;73.97;;;33.53;;
3843;SDS011;1937;51.444;6.484;2022-12-16T12:56:52;72.57;;;30.60;;
3843;SDS011;1937;51.444;6.484;2022-12-16T12:59:44;68.53;;;29.83;;
3843;SDS011;1937;51.444;6.484;2022-12-16T13:02:39;62.17;;;30.73;;
3843;SDS011;1937;51.444;6.484;2022-12-16T13:05:28;69.97;;;30.70;;
3843;SDS011;1937;51.444;6.484;2022-12-16T13:08:30;64.97;;;29.50;;
3843;SDS011;1937;51.444;6.484;2022-12-16T13:11:26;123.97;;;51.37;;
3843;SDS011;1937;51.444;6.484;2022-12-16T13:20:54;53.93;;;28.70;;
3843;SDS011;1937;51.444;6.484;2022-12-16T13:23:41;64.57;;;34.57;;
3843;SDS011;1937;51.444;6.484;2022-12-16T13:26:28;57.07;;;29.57;;
3843;SDS011;1937;51.444;6.484;2022-12-16T13:29:17;63.33;;;33.03;;
3843;SDS011;1937;51.444;6.484;2022-12-16T13:32:17;57.93;;;31.53;;
3843;SDS011;1937;51.444;6.484;2022-12-16T13:35:13;65.13;;;30.17;;
3843;SDS011;1937;51.444;6.484;2022-12-16T13:38:02;70.07;;;30.13;;
3843;SDS011;1937;51.444;6.484;2022-12-16T13:41:02;71.07;;;32.17;;
3843;SDS011;1937;51.444;6.484;2022-12-16T13:43:50;62.93;;;29.70;;
3843;SDS011;1937;51.444;6.484;2022-12-16T13:46:38;67.13;;;31.47;;
3843;SDS011;1937;51.444;6.484;2022-12-16T13:49:40;70.03;;;32.07;;
3843;SDS011;1937;51.444;6.484;2022-12-16T13:52:29;59.17;;;32.03;;
3843;SDS011;1937;51.444;6.484;2022-12-16T13:55:28;59.10;;;30.73;;
3843;SDS011;1937;51.444;6.484;2022-12-16T13:58:24;55.07;;;28.00;;
3843;SDS011;1937;51.444;6.484;2022-12-16T14:01:15;65.20;;;31.30;;
3843;SDS011;1937;51.444;6.484;2022-12-16T14:04:07;57.37;;;32.40;;
3843;SDS011;1937;51.444;6.484;2022-12-16T14:06:58;63.87;;;31.97;;
3843;SDS011;1937;51.444;6.484;2022-12-16T14:09:46;55.33;;;30.80;;
3843;SDS011;1937;51.444;6.484;2022-12-16T14:12:39;65.70;;;34.80;;
3843;SDS011;1937;51.444;6.484;2022-12-16T14:15:30;82.30;;;35.60;;
3843;SDS011;1937;51.444;6.484;2022-12-16T14:18:25;73.93;;;30.47;;
3843;SDS011;1937;51.444;6.484;2022-12-16T14:21:19;90.07;;;38.53;;
3843;SDS011;1937;51.444;6.484;2022-12-16T14:24:11;99.83;;;37.33;;
3843;SDS011;1937;51.444;6.484;2022-12-16T14:27:04;87.83;;;32.50;;
3843;SDS011;1937;51.444;6.484;2022-12-16T14:29:56;85.60;;;35.57;;
3843;SDS011;1937;51.444;6.484;2022-12-16T14:32:43;66.87;;;31.20;;
3843;SDS011;1937;51.444;6.484;2022-12-16T14:35:29;61.47;;;32.77;;
3843;SDS011;1937;51.444;6.484;2022-12-16T14:38:23;64.70;;;33.77;;
3843;SDS011;1937;51.444;6.484;2022-12-16T14:41:11;70.90;;;33.60;;
3843;SDS011;1937;51.444;6.484;2022-12-16T14:44:01;70.40;;;32.43;;
3843;SDS011;1937;51.444;6.484;2022-12-16T14:46:58;67.00;;;31.60;;
3843;SDS011;1937;51.444;6.484;2022-12-16T14:49:47;62.90;;;32.10;;
3843;SDS011;1937;51.444;6.484;2022-12-16T14:52:34;80.27;;;33.27;;
3843;SDS011;1937;51.444;6.484;2022-12-16T14:55:24;72.07;;;33.73;;
3843;SDS011;1937;51.444;6.484;2022-12-16T14:58:13;69.37;;;32.87;;
3843;SDS011;1937;51.444;6.484;2022-12-16T15:01:01;69.93;;;33.23;;
3843;SDS011;1937;51.444;6.484;2022-12-16T15:04:03;66.03;;;33.60;;
3843;SDS011;1937;51.444;6.484;2022-12-16T15:06:55;67.23;;;31.87;;
3843;SDS011;1937;51.444;6.484;2022-12-16T15:09:41;60.37;;;32.17;;
3843;SDS011;1937;51.444;6.484;2022-12-16T15:12:31;62.17;;;33.37;;
3843;SDS011;1937;51.444;6.484;2022-12-16T15:15:23;66.13;;;34.30;;
3843;SDS011;1937;51.444;6.484;2022-12-16T15:18:14;66.77;;;32.60;;
3843;SDS011;1937;51.444;6.484;2022-12-16T15:21:06;78.93;;;32.83;;
3843;SDS011;1937;51.444;6.484;2022-12-16T15:23:52;64.57;;;31.37;;
3843;SDS011;1937;51.444;6.484;2022-12-16T15:26:38;72.10;;;32.00;;
3843;SDS011;1937;51.444;6.484;2022-12-16T15:29:30;70.33;;;35.60;;
3843;SDS011;1937;51.444;6.484;2022-12-16T15:32:30;70.53;;;32.03;;
3843;SDS011;1937;51.444;6.484;2022-12-16T15:35:24;70.30;;;34.40;;
3843;SDS011;1937;51.444;6.484;2022-12-16T15:38:18;76.13;;;34.80;;
3843;SDS011;1937;51.444;6.484;2022-12-16T15:41:19;87.77;;;39.30;;
3843;SDS011;1937;51.444;6.484;2022-12-16T15:44:13;78.73;;;34.73;;
3843;SDS011;1937;51.444;6.484;2022-12-16T15:46:59;86.07;;;35.00;;
3843;SDS011;1937;51.444;6.484;2022-12-16T15:49:45;71.23;;;31.20;;
3843;SDS011;1937;51.444;6.484;2022-12-16T15:52:34;77.80;;;35.27;;
3843;SDS011;1937;51.444;6.484;2022-12-16T15:55:27;92.40;;;34.23;;
3843;SDS011;1937;51.444;6.484;2022-12-16T15:58:18;81.30;;;34.07;;
3843;SDS011;1937;51.444;6.484;2022-12-16T16:01:09;80.47;;;36.00;;
3843;SDS011;1937;51.444;6.484;2022-12-16T16:03:58;66.13;;;33.00;;
3843;SDS011;1937;51.444;6.484;2022-12-16T16:06:45;69.43;;;33.60;;
3843;SDS011;1937;51.444;6.484;2022-12-16T16:09:34;74.17;;;33.30;;
3843;SDS011;1937;51.444;6.484;2022-12-16T16:12:23;77.03;;;33.27;;
3843;SDS011;1937;51.444;6.484;2022-12-16T16:15:10;75.90;;;34.30;;
3843;SDS011;1937;51.444;6.484;2022-12-16T16:17:57;69.17;;;33.40;;
3843;SDS011;1937;51.444;6.484;2022-12-16T16:20:45;87.77;;;34.80;;
3843;SDS011;1937;51.444;6.484;2022-12-16T16:23:32;79.40;;;36.57;;
3843;SDS011;1937;51.444;6.484;2022-12-16T16:26:19;84.50;;;38.90;;
3843;SDS011;1937;51.444;6.484;2022-12-16T16:29:08;69.37;;;34.47;;
3843;SDS011;1937;51.444;6.484;2022-12-16T16:31:54;67.57;;;30.70;;
3843;SDS011;1937;51.444;6.484;2022-12-16T16:34:40;65.40;;;30.07;;
3843;SDS011;1937;51.444;6.484;2022-12-16T16:37:26;67.57;;;34.43;;
3843;SDS011;1937;51.444;6.484;2022-12-16T16:40:15;91.63;;;33.33;;
3843;SDS011;1937;51.444;6.484;2022-12-16T16:43:06;78.83;;;37.47;;
3843;SDS011;1937;51.444;6.484;2022-12-16T16:45:54;70.70;;;34.73;;